sensor_id;sensor_type;location;lat;lon;timestamp;P1;durP1;ratioP1;P2;durP2;ratioP2
6757;SDS011;3416;53.074;8.822;2023-05-08T00:00:35;7.72;;;6.70;;
6757;SDS011;3416;53.074;8.822;2023-05-08T00:03:02;11.93;;;7.55;;
6757;SDS011;3416;53.074;8.822;2023-05-08T00:05:29;7.32;;;6.65;;
6757;SDS011;3416;53.074;8.822;2023-05-08T00:07:57;9.38;;;8.45;;
6757;SDS011;3416;53.074;8.822;2023-05-08T00:10:26;8.68;;;7.85;;
6757;SDS011;3416;53.074;8.822;2023-05-08T00:12:55;9.60;;;8.40;;
6757;SDS011;3416;53.074;8.822;2023-05-08T00:15:23;9.30;;;8.40;;
6757;SDS011;3416;53.074;8.822;2023-05-08T00:17:50;8.57;;;7.30;;
6757;SDS011;3416;53.074;8.822;2023-05-08T00:20:17;7.93;;;7.13;;
6757;SDS011;3416;53.074;8.822;2023-05-08T00:22:44;8.52;;;7.53;;
6757;SDS011;3416;53.074;8.822;2023-05-08T00:25:10;8.32;;;7.50;;
6757;SDS011;3416;53.074;8.822;2023-05-08T00:27:37;11.68;;;7.93;;
6757;SDS011;3416;53.074;8.822;2023-05-08T00:30:07;10.35;;;8.50;;
6757;SDS011;3416;53.074;8.822;2023-05-08T00:32:35;8.40;;;7.00;;
6757;SDS011;3416;53.074;8.822;2023-05-08T00:35:02;9.07;;;8.13;;
6757;SDS011;3416;53.074;8.822;2023-05-08T00:37:29;9.90;;;7.57;;
6757;SDS011;3416;53.074;8.822;2023-05-08T00:39:56;8.57;;;7.40;;
6757;SDS011;3416;53.074;8.822;2023-05-08T00:42:23;11.45;;;7.85;;
6757;SDS011;3416;53.074;8.822;2023-05-08T00:44:50;8.27;;;7.47;;
6757;SDS011;3416;53.074;8.822;2023-05-08T00:47:19;8.90;;;8.07;;
6757;SDS011;3416;53.074;8.822;2023-05-08T00:49:47;10.30;;;9.30;;
6757;SDS011;3416;53.074;8.822;2023-05-08T00:52:14;10.70;;;9.45;;
6757;SDS011;3416;53.074;8.822;2023-05-08T00:54:42;8.05;;;7.30;;
6757;SDS011;3416;53.074;8.822;2023-05-08T00:57:10;8.10;;;7.40;;
6757;SDS011;3416;53.074;8.822;2023-05-08T00:59:38;9.23;;;8.35;;
6757;SDS011;3416;53.074;8.822;2023-05-08T01:02:06;9.98;;;7.85;;
6757;SDS011;3416;53.074;8.822;2023-05-08T01:04:35;8.25;;;7.40;;
6757;SDS011;3416;53.074;8.822;2023-05-08T01:07:03;8.05;;;7.25;;
6757;SDS011;3416;53.074;8.822;2023-05-08T01:09:30;8.35;;;7.55;;
6757;SDS011;3416;53.074;8.822;2023-05-08T01:12:01;8.02;;;7.22;;
6757;SDS011;3416;53.074;8.822;2023-05-08T01:14:35;7.95;;;7.25;;
6757;SDS011;3416;53.074;8.822;2023-05-08T01:17:11;7.75;;;7.05;;
6757;SDS011;3416;53.074;8.822;2023-05-08T01:19:56;8.80;;;8.00;;
6757;SDS011;3416;53.074;8.822;2023-05-08T01:22:42;8.88;;;7.05;;
6757;SDS011;3416;53.074;8.822;2023-05-08T01:25:38;8.23;;;7.47;;
6757;SDS011;3416;53.074;8.822;2023-05-08T01:28:38;8.77;;;7.93;;
6757;SDS011;3416;53.074;8.822;2023-05-08T01:31:45;7.82;;;7.03;;
6757;SDS011;3416;53.074;8.822;2023-05-08T01:34:22;10.07;;;9.02;;
6757;SDS011;3416;53.074;8.822;2023-05-08T01:36:53;8.68;;;7.57;;
6757;SDS011;3416;53.074;8.822;2023-05-08T01:39:26;10.02;;;8.63;;
6757;SDS011;3416;53.074;8.822;2023-05-08T01:41:59;8.65;;;7.85;;
6757;SDS011;3416;53.074;8.822;2023-05-08T01:44:32;8.05;;;7.28;;
6757;SDS011;3416;53.074;8.822;2023-05-08T01:47:04;9.05;;;8.18;;
6757;SDS011;3416;53.074;8.822;2023-05-08T01:49:36;9.38;;;8.43;;
6757;SDS011;3416;53.074;8.822;2023-05-08T01:52:09;9.23;;;8.52;;
6757;SDS011;3416;53.074;8.822;2023-05-08T01:54:43;8.88;;;7.78;;
6757;SDS011;3416;53.074;8.822;2023-05-08T01:57:15;10.00;;;9.10;;
6757;SDS011;3416;53.074;8.822;2023-05-08T01:59:44;9.68;;;8.73;;
6757;SDS011;3416;53.074;8.822;2023-05-08T02:02:14;10.27;;;9.35;;
6757;SDS011;3416;53.074;8.822;2023-05-08T02:04:45;8.55;;;7.75;;
6757;SDS011;3416;53.074;8.822;2023-05-08T02:07:14;10.38;;;9.48;;
6757;SDS011;3416;53.074;8.822;2023-05-08T02:09:42;9.60;;;8.70;;
6757;SDS011;3416;53.074;8.822;2023-05-08T02:12:10;10.10;;;8.90;;
6757;SDS011;3416;53.074;8.822;2023-05-08T02:14:38;10.10;;;8.65;;
6757;SDS011;3416;53.074;8.822;2023-05-08T02:17:06;9.10;;;8.20;;
6757;SDS011;3416;53.074;8.822;2023-05-08T02:19:36;9.82;;;9.00;;
6757;SDS011;3416;53.074;8.822;2023-05-08T02:22:07;11.23;;;10.23;;
6757;SDS011;3416;53.074;8.822;2023-05-08T02:24:36;10.15;;;9.25;;
6757;SDS011;3416;53.074;8.822;2023-05-08T02:27:04;13.43;;;10.25;;
6757;SDS011;3416;53.074;8.822;2023-05-08T02:29:33;10.85;;;9.82;;
6757;SDS011;3416;53.074;8.822;2023-05-08T02:32:01;9.98;;;9.05;;
6757;SDS011;3416;53.074;8.822;2023-05-08T02:34:30;11.18;;;8.95;;
6757;SDS011;3416;53.074;8.822;2023-05-08T02:36:57;11.35;;;10.25;;
6757;SDS011;3416;53.074;8.822;2023-05-08T02:39:27;10.25;;;9.25;;
6757;SDS011;3416;53.074;8.822;2023-05-08T02:41:55;10.90;;;9.88;;
6757;SDS011;3416;53.074;8.822;2023-05-08T02:44:23;10.50;;;9.50;;
6757;SDS011;3416;53.074;8.822;2023-05-08T02:46:54;9.15;;;8.20;;
6757;SDS011;3416;53.074;8.822;2023-05-08T02:49:27;10.65;;;9.60;;
6757;SDS011;3416;53.074;8.822;2023-05-08T02:51:59;12.05;;;10.90;;
6757;SDS011;3416;53.074;8.822;2023-05-08T02:54:34;10.55;;;9.23;;
6757;SDS011;3416;53.074;8.822;2023-05-08T02:57:08;10.80;;;9.90;;
6757;SDS011;3416;53.074;8.822;2023-05-08T02:59:41;10.05;;;9.15;;
6757;SDS011;3416;53.074;8.822;2023-05-08T03:02:14;9.38;;;8.48;;
6757;SDS011;3416;53.074;8.822;2023-05-08T03:04:48;10.75;;;9.75;;
6757;SDS011;3416;53.074;8.822;2023-05-08T03:07:18;23.20;;;10.52;;
6757;SDS011;3416;53.074;8.822;2023-05-08T03:09:57;11.20;;;10.10;;
6757;SDS011;3416;53.074;8.822;2023-05-08T03:12:29;11.50;;;10.25;;
6757;SDS011;3416;53.074;8.822;2023-05-08T03:14:59;11.35;;;10.20;;
6757;SDS011;3416;53.074;8.822;2023-05-08T03:17:32;10.07;;;9.18;;
6757;SDS011;3416;53.074;8.822;2023-05-08T03:20:02;11.52;;;10.45;;
6757;SDS011;3416;53.074;8.822;2023-05-08T03:22:32;11.13;;;9.82;;
6757;SDS011;3416;53.074;8.822;2023-05-08T03:25:02;9.77;;;8.90;;
6757;SDS011;3416;53.074;8.822;2023-05-08T03:27:32;13.02;;;10.15;;
6757;SDS011;3416;53.074;8.822;2023-05-08T03:30:00;10.90;;;9.80;;
6757;SDS011;3416;53.074;8.822;2023-05-08T03:32:29;10.50;;;9.48;;
6757;SDS011;3416;53.074;8.822;2023-05-08T03:34:58;11.85;;;10.73;;
6757;SDS011;3416;53.074;8.822;2023-05-08T03:37:26;10.85;;;9.85;;
6757;SDS011;3416;53.074;8.822;2023-05-08T03:39:54;12.10;;;10.93;;
6757;SDS011;3416;53.074;8.822;2023-05-08T03:42:22;10.77;;;9.77;;
6757;SDS011;3416;53.074;8.822;2023-05-08T03:44:49;11.40;;;10.30;;
6757;SDS011;3416;53.074;8.822;2023-05-08T03:47:17;12.00;;;10.95;;
6757;SDS011;3416;53.074;8.822;2023-05-08T03:49:44;12.00;;;10.77;;
6757;SDS011;3416;53.074;8.822;2023-05-08T03:52:12;11.32;;;10.32;;
6757;SDS011;3416;53.074;8.822;2023-05-08T03:54:40;12.00;;;10.80;;
6757;SDS011;3416;53.074;8.822;2023-05-08T03:57:07;11.73;;;10.40;;
6757;SDS011;3416;53.074;8.822;2023-05-08T03:59:37;11.45;;;10.35;;
6757;SDS011;3416;53.074;8.822;2023-05-08T04:02:11;11.48;;;10.38;;
6757;SDS011;3416;53.074;8.822;2023-05-08T04:04:44;13.02;;;11.45;;
6757;SDS011;3416;53.074;8.822;2023-05-08T04:07:23;12.38;;;10.25;;
6757;SDS011;3416;53.074;8.822;2023-05-08T04:09:57;11.27;;;10.27;;
6757;SDS011;3416;53.074;8.822;2023-05-08T04:12:31;10.85;;;9.75;;
6757;SDS011;3416;53.074;8.822;2023-05-08T04:15:06;11.60;;;10.45;;
6757;SDS011;3416;53.074;8.822;2023-05-08T04:17:38;12.38;;;10.65;;
6757;SDS011;3416;53.074;8.822;2023-05-08T04:20:08;12.30;;;11.10;;
6757;SDS011;3416;53.074;8.822;2023-05-08T04:22:39;10.35;;;9.32;;
6757;SDS011;3416;53.074;8.822;2023-05-08T04:25:08;11.98;;;10.40;;
6757;SDS011;3416;53.074;8.822;2023-05-08T04:27:37;12.63;;;11.30;;
6757;SDS011;3416;53.074;8.822;2023-05-08T04:30:07;11.70;;;10.50;;
6757;SDS011;3416;53.074;8.822;2023-05-08T04:32:35;10.63;;;9.65;;
6757;SDS011;3416;53.074;8.822;2023-05-08T04:35:03;11.43;;;10.30;;
6757;SDS011;3416;53.074;8.822;2023-05-08T04:37:32;12.15;;;10.95;;
6757;SDS011;3416;53.074;8.822;2023-05-08T04:39:59;11.35;;;10.25;;
6757;SDS011;3416;53.074;8.822;2023-05-08T04:42:27;10.45;;;9.35;;
6757;SDS011;3416;53.074;8.822;2023-05-08T04:44:54;10.43;;;9.40;;
6757;SDS011;3416;53.074;8.822;2023-05-08T04:47:23;9.75;;;8.75;;
6757;SDS011;3416;53.074;8.822;2023-05-08T04:49:50;10.20;;;9.30;;
6757;SDS011;3416;53.074;8.822;2023-05-08T04:52:16;9.82;;;8.82;;
6757;SDS011;3416;53.074;8.822;2023-05-08T04:54:43;9.73;;;8.82;;
6757;SDS011;3416;53.074;8.822;2023-05-08T04:57:10;8.77;;;7.97;;
6757;SDS011;3416;53.074;8.822;2023-05-08T04:59:37;8.90;;;8.00;;
6757;SDS011;3416;53.074;8.822;2023-05-08T05:02:04;9.48;;;8.63;;
6757;SDS011;3416;53.074;8.822;2023-05-08T05:04:33;9.85;;;8.40;;
6757;SDS011;3416;53.074;8.822;2023-05-08T05:07:00;9.23;;;8.32;;
6757;SDS011;3416;53.074;8.822;2023-05-08T05:09:28;8.95;;;8.15;;
6757;SDS011;3416;53.074;8.822;2023-05-08T05:11:55;9.35;;;8.32;;
6757;SDS011;3416;53.074;8.822;2023-05-08T05:14:23;9.32;;;7.88;;
6757;SDS011;3416;53.074;8.822;2023-05-08T05:16:49;8.77;;;7.80;;
6757;SDS011;3416;53.074;8.822;2023-05-08T05:19:17;8.60;;;7.80;;
6757;SDS011;3416;53.074;8.822;2023-05-08T05:21:45;8.27;;;7.57;;
6757;SDS011;3416;53.074;8.822;2023-05-08T05:24:12;8.48;;;7.18;;
6757;SDS011;3416;53.074;8.822;2023-05-08T05:26:39;8.00;;;7.20;;
6757;SDS011;3416;53.074;8.822;2023-05-08T05:29:08;8.67;;;7.23;;
6757;SDS011;3416;53.074;8.822;2023-05-08T05:31:35;8.23;;;7.50;;
6757;SDS011;3416;53.074;8.822;2023-05-08T05:34:02;8.17;;;7.47;;
6757;SDS011;3416;53.074;8.822;2023-05-08T05:36:29;8.63;;;7.83;;
6757;SDS011;3416;53.074;8.822;2023-05-08T05:38:58;7.53;;;6.70;;
6757;SDS011;3416;53.074;8.822;2023-05-08T05:41:25;7.50;;;6.90;;
6757;SDS011;3416;53.074;8.822;2023-05-08T05:43:53;7.27;;;6.60;;
6757;SDS011;3416;53.074;8.822;2023-05-08T05:46:21;8.17;;;6.10;;
6757;SDS011;3416;53.074;8.822;2023-05-08T05:48:53;7.43;;;6.73;;
6757;SDS011;3416;53.074;8.822;2023-05-08T05:51:20;8.33;;;7.00;;
6757;SDS011;3416;53.074;8.822;2023-05-08T05:53:48;8.40;;;6.90;;
6757;SDS011;3416;53.074;8.822;2023-05-08T05:56:16;7.33;;;6.73;;
6757;SDS011;3416;53.074;8.822;2023-05-08T05:58:44;10.00;;;7.30;;
6757;SDS011;3416;53.074;8.822;2023-05-08T06:01:11;8.50;;;7.70;;
6757;SDS011;3416;53.074;8.822;2023-05-08T06:03:45;8.83;;;8.03;;
6757;SDS011;3416;53.074;8.822;2023-05-08T06:06:12;9.37;;;8.40;;
6757;SDS011;3416;53.074;8.822;2023-05-08T06:08:40;11.83;;;8.97;;
6757;SDS011;3416;53.074;8.822;2023-05-08T06:11:08;8.80;;;8.00;;
6757;SDS011;3416;53.074;8.822;2023-05-08T06:13:36;8.20;;;7.50;;
6757;SDS011;3416;53.074;8.822;2023-05-08T06:16:06;9.43;;;8.53;;
6757;SDS011;3416;53.074;8.822;2023-05-08T06:18:33;10.67;;;7.90;;
6757;SDS011;3416;53.074;8.822;2023-05-08T06:21:01;8.60;;;7.70;;
6757;SDS011;3416;53.074;8.822;2023-05-08T06:23:28;8.00;;;7.30;;
6757;SDS011;3416;53.074;8.822;2023-05-08T06:26:01;8.37;;;7.57;;
6757;SDS011;3416;53.074;8.822;2023-05-08T06:28:28;8.70;;;7.90;;
6757;SDS011;3416;53.074;8.822;2023-05-08T06:30:57;10.00;;;9.10;;
6757;SDS011;3416;53.074;8.822;2023-05-08T06:33:25;7.90;;;7.17;;
6757;SDS011;3416;53.074;8.822;2023-05-08T06:35:52;8.98;;;8.18;;
6757;SDS011;3416;53.074;8.822;2023-05-08T06:38:19;10.27;;;8.70;;
6757;SDS011;3416;53.074;8.822;2023-05-08T06:40:46;7.97;;;7.28;;
6757;SDS011;3416;53.074;8.822;2023-05-08T06:43:14;9.07;;;8.30;;
6757;SDS011;3416;53.074;8.822;2023-05-08T06:45:42;7.97;;;7.20;;
6757;SDS011;3416;53.074;8.822;2023-05-08T06:48:10;6.97;;;6.37;;
6757;SDS011;3416;53.074;8.822;2023-05-08T06:50:37;9.57;;;7.40;;
6757;SDS011;3416;53.074;8.822;2023-05-08T06:53:05;8.30;;;7.50;;
6757;SDS011;3416;53.074;8.822;2023-05-08T06:55:32;11.25;;;7.90;;
6757;SDS011;3416;53.074;8.822;2023-05-08T06:57:59;8.40;;;7.57;;
6757;SDS011;3416;53.074;8.822;2023-05-08T07:00:27;9.27;;;8.43;;
6757;SDS011;3416;53.074;8.822;2023-05-08T07:02:53;8.80;;;8.00;;
6757;SDS011;3416;53.074;8.822;2023-05-08T07:05:22;8.60;;;7.80;;
6757;SDS011;3416;53.074;8.822;2023-05-08T07:07:49;10.57;;;7.87;;
6757;SDS011;3416;53.074;8.822;2023-05-08T07:10:18;10.57;;;9.00;;
6757;SDS011;3416;53.074;8.822;2023-05-08T07:12:46;9.30;;;8.40;;
6757;SDS011;3416;53.074;8.822;2023-05-08T07:15:13;8.00;;;7.30;;
6757;SDS011;3416;53.074;8.822;2023-05-08T07:17:40;9.07;;;8.20;;
6757;SDS011;3416;53.074;8.822;2023-05-08T07:20:08;8.10;;;7.40;;
6757;SDS011;3416;53.074;8.822;2023-05-08T07:22:37;8.70;;;7.47;;
6757;SDS011;3416;53.074;8.822;2023-05-08T07:25:06;8.60;;;7.80;;
6757;SDS011;3416;53.074;8.822;2023-05-08T07:27:34;9.00;;;7.50;;
6757;SDS011;3416;53.074;8.822;2023-05-08T07:30:01;7.10;;;6.40;;
6757;SDS011;3416;53.074;8.822;2023-05-08T07:32:28;7.97;;;7.23;;
6757;SDS011;3416;53.074;8.822;2023-05-08T07:34:56;7.67;;;6.47;;
6757;SDS011;3416;53.074;8.822;2023-05-08T07:37:23;8.10;;;7.17;;
6757;SDS011;3416;53.074;8.822;2023-05-08T07:39:51;7.03;;;6.33;;
6757;SDS011;3416;53.074;8.822;2023-05-08T07:42:18;6.70;;;6.10;;
6757;SDS011;3416;53.074;8.822;2023-05-08T07:44:45;6.40;;;5.80;;
6757;SDS011;3416;53.074;8.822;2023-05-08T07:47:12;8.47;;;7.60;;
6757;SDS011;3416;53.074;8.822;2023-05-08T07:49:39;7.87;;;6.77;;
6757;SDS011;3416;53.074;8.822;2023-05-08T07:52:06;7.17;;;6.57;;
6757;SDS011;3416;53.074;8.822;2023-05-08T07:54:33;6.10;;;5.60;;
6757;SDS011;3416;53.074;8.822;2023-05-08T07:57:01;7.90;;;7.20;;
6757;SDS011;3416;53.074;8.822;2023-05-08T07:59:28;7.20;;;6.60;;
6757;SDS011;3416;53.074;8.822;2023-05-08T08:01:55;7.03;;;6.40;;
6757;SDS011;3416;53.074;8.822;2023-05-08T08:04:22;8.10;;;7.30;;
6757;SDS011;3416;53.074;8.822;2023-05-08T08:06:49;8.00;;;6.30;;
6757;SDS011;3416;53.074;8.822;2023-05-08T08:09:16;8.10;;;7.27;;
6757;SDS011;3416;53.074;8.822;2023-05-08T08:11:43;8.83;;;6.50;;
6757;SDS011;3416;53.074;8.822;2023-05-08T08:14:11;7.03;;;6.33;;
6757;SDS011;3416;53.074;8.822;2023-05-08T08:16:38;6.93;;;6.33;;
6757;SDS011;3416;53.074;8.822;2023-05-08T08:19:06;7.70;;;6.87;;
6757;SDS011;3416;53.074;8.822;2023-05-08T08:21:34;7.27;;;6.67;;
6757;SDS011;3416;53.074;8.822;2023-05-08T08:24:02;8.63;;;7.50;;
6757;SDS011;3416;53.074;8.822;2023-05-08T08:26:29;7.30;;;6.70;;
6757;SDS011;3416;53.074;8.822;2023-05-08T08:28:56;8.87;;;8.17;;
6757;SDS011;3416;53.074;8.822;2023-05-08T08:31:25;8.33;;;7.53;;
6757;SDS011;3416;53.074;8.822;2023-05-08T08:33:51;7.50;;;6.80;;
6757;SDS011;3416;53.074;8.822;2023-05-08T08:36:18;7.03;;;6.33;;
6757;SDS011;3416;53.074;8.822;2023-05-08T08:38:45;8.03;;;7.27;;
6757;SDS011;3416;53.074;8.822;2023-05-08T08:41:12;7.60;;;6.90;;
6757;SDS011;3416;53.074;8.822;2023-05-08T08:43:39;7.70;;;6.97;;
6757;SDS011;3416;53.074;8.822;2023-05-08T08:46:09;8.47;;;7.43;;
6757;SDS011;3416;53.074;8.822;2023-05-08T08:48:39;7.53;;;6.70;;
6757;SDS011;3416;53.074;8.822;2023-05-08T08:51:11;8.80;;;7.67;;
6757;SDS011;3416;53.074;8.822;2023-05-08T08:53:43;8.20;;;7.20;;
6757;SDS011;3416;53.074;8.822;2023-05-08T08:56:14;7.70;;;7.00;;
6757;SDS011;3416;53.074;8.822;2023-05-08T08:58:44;9.43;;;8.53;;
6757;SDS011;3416;53.074;8.822;2023-05-08T09:01:19;9.03;;;8.10;;
6757;SDS011;3416;53.074;8.822;2023-05-08T09:03:50;8.97;;;8.17;;
6757;SDS011;3416;53.074;8.822;2023-05-08T09:06:17;9.27;;;8.37;;
6757;SDS011;3416;53.074;8.822;2023-05-08T09:08:44;8.90;;;8.20;;
6757;SDS011;3416;53.074;8.822;2023-05-08T09:11:12;8.60;;;7.70;;
6757;SDS011;3416;53.074;8.822;2023-05-08T09:13:39;8.80;;;8.00;;
6757;SDS011;3416;53.074;8.822;2023-05-08T09:16:06;9.90;;;9.00;;
6757;SDS011;3416;53.074;8.822;2023-05-08T09:18:33;9.23;;;8.40;;
6757;SDS011;3416;53.074;8.822;2023-05-08T09:21:11;10.47;;;9.47;;
6757;SDS011;3416;53.074;8.822;2023-05-08T09:26:25;9.37;;;8.47;;
6757;SDS011;3416;53.074;8.822;2023-05-08T09:31:46;9.77;;;8.87;;
6757;SDS011;3416;53.074;8.822;2023-05-08T09:34:24;8.93;;;8.07;;
6757;SDS011;3416;53.074;8.822;2023-05-08T09:36:53;11.37;;;9.87;;
6757;SDS011;3416;53.074;8.822;2023-05-08T09:39:25;10.00;;;8.60;;
6757;SDS011;3416;53.074;8.822;2023-05-08T09:41:55;9.10;;;8.20;;
6757;SDS011;3416;53.074;8.822;2023-05-08T09:44:39;9.13;;;8.33;;
6757;SDS011;3416;53.074;8.822;2023-05-08T09:47:09;10.17;;;9.27;;
6757;SDS011;3416;53.074;8.822;2023-05-08T09:52:26;10.23;;;9.33;;
6757;SDS011;3416;53.074;8.822;2023-05-08T09:55:02;9.43;;;7.90;;
6757;SDS011;3416;53.074;8.822;2023-05-08T09:57:31;10.90;;;9.83;;
6757;SDS011;3416;53.074;8.822;2023-05-08T10:00:03;11.83;;;8.50;;
6757;SDS011;3416;53.074;8.822;2023-05-08T10:02:32;9.43;;;8.63;;
6757;SDS011;3416;53.074;8.822;2023-05-08T10:05:00;9.50;;;8.60;;
6757;SDS011;3416;53.074;8.822;2023-05-08T10:07:30;9.23;;;8.43;;
6757;SDS011;3416;53.074;8.822;2023-05-08T10:09:59;10.33;;;9.33;;
6757;SDS011;3416;53.074;8.822;2023-05-08T10:12:28;9.70;;;8.80;;
6757;SDS011;3416;53.074;8.822;2023-05-08T10:14:56;10.00;;;9.20;;
6757;SDS011;3416;53.074;8.822;2023-05-08T10:17:26;10.80;;;8.73;;
6757;SDS011;3416;53.074;8.822;2023-05-08T10:19:58;9.67;;;8.10;;
6757;SDS011;3416;53.074;8.822;2023-05-08T10:22:30;10.03;;;9.03;;
6757;SDS011;3416;53.074;8.822;2023-05-08T10:25:01;9.50;;;8.60;;
6757;SDS011;3416;53.074;8.822;2023-05-08T10:27:34;14.53;;;10.77;;
6757;SDS011;3416;53.074;8.822;2023-05-08T10:30:06;10.07;;;9.00;;
6757;SDS011;3416;53.074;8.822;2023-05-08T10:32:42;9.30;;;8.50;;
6757;SDS011;3416;53.074;8.822;2023-05-08T10:35:10;10.73;;;9.73;;
6757;SDS011;3416;53.074;8.822;2023-05-08T10:37:39;10.47;;;9.57;;
6757;SDS011;3416;53.074;8.822;2023-05-08T10:40:07;10.50;;;9.50;;
6757;SDS011;3416;53.074;8.822;2023-05-08T10:42:36;9.40;;;8.50;;
6757;SDS011;3416;53.074;8.822;2023-05-08T10:45:04;10.77;;;9.73;;
6757;SDS011;3416;53.074;8.822;2023-05-08T10:47:36;9.97;;;9.10;;
6757;SDS011;3416;53.074;8.822;2023-05-08T10:50:13;10.83;;;9.77;;
6757;SDS011;3416;53.074;8.822;2023-05-08T10:52:52;11.57;;;10.33;;
6757;SDS011;3416;53.074;8.822;2023-05-08T10:55:24;10.20;;;9.30;;
6757;SDS011;3416;53.074;8.822;2023-05-08T10:58:01;9.77;;;8.80;;
6757;SDS011;3416;53.074;8.822;2023-05-08T11:00:30;9.77;;;8.90;;
6757;SDS011;3416;53.074;8.822;2023-05-08T11:03:03;8.77;;;7.97;;
6757;SDS011;3416;53.074;8.822;2023-05-08T11:05:33;10.20;;;9.30;;
6757;SDS011;3416;53.074;8.822;2023-05-08T11:08:14;10.93;;;9.93;;
6757;SDS011;3416;53.074;8.822;2023-05-08T11:10:43;10.60;;;9.27;;
6757;SDS011;3416;53.074;8.822;2023-05-08T11:13:12;10.00;;;9.20;;
6757;SDS011;3416;53.074;8.822;2023-05-08T11:15:40;11.33;;;10.33;;
6757;SDS011;3416;53.074;8.822;2023-05-08T11:18:07;10.27;;;9.27;;
6757;SDS011;3416;53.074;8.822;2023-05-08T11:20:38;13.97;;;9.20;;
6757;SDS011;3416;53.074;8.822;2023-05-08T11:23:23;10.23;;;9.17;;
6757;SDS011;3416;53.074;8.822;2023-05-08T11:25:57;10.90;;;9.70;;
6757;SDS011;3416;53.074;8.822;2023-05-08T11:28:30;9.57;;;8.63;;
6757;SDS011;3416;53.074;8.822;2023-05-08T11:31:01;11.30;;;10.20;;
6757;SDS011;3416;53.074;8.822;2023-05-08T11:33:29;10.60;;;9.50;;
6757;SDS011;3416;53.074;8.822;2023-05-08T11:35:57;10.50;;;9.50;;
6757;SDS011;3416;53.074;8.822;2023-05-08T11:38:28;10.37;;;8.90;;
6757;SDS011;3416;53.074;8.822;2023-05-08T11:41:01;10.57;;;9.47;;
6757;SDS011;3416;53.074;8.822;2023-05-08T11:46:47;9.70;;;8.80;;
6757;SDS011;3416;53.074;8.822;2023-05-08T11:49:16;9.67;;;8.70;;
6757;SDS011;3416;53.074;8.822;2023-05-08T11:51:45;10.00;;;9.10;;
6757;SDS011;3416;53.074;8.822;2023-05-08T11:54:15;11.63;;;10.50;;
6757;SDS011;3416;53.074;8.822;2023-05-08T11:56:44;10.10;;;9.20;;
6757;SDS011;3416;53.074;8.822;2023-05-08T11:59:13;11.47;;;10.37;;
6757;SDS011;3416;53.074;8.822;2023-05-08T12:01:41;10.97;;;9.97;;
6757;SDS011;3416;53.074;8.822;2023-05-08T12:04:08;9.20;;;8.40;;
6757;SDS011;3416;53.074;8.822;2023-05-08T12:06:37;10.03;;;9.10;;
6757;SDS011;3416;53.074;8.822;2023-05-08T12:09:10;10.20;;;9.20;;
6757;SDS011;3416;53.074;8.822;2023-05-08T12:11:39;9.47;;;8.67;;
6757;SDS011;3416;53.074;8.822;2023-05-08T12:14:07;10.30;;;8.90;;
6757;SDS011;3416;53.074;8.822;2023-05-08T12:16:37;10.60;;;9.50;;
6757;SDS011;3416;53.074;8.822;2023-05-08T12:19:08;11.63;;;8.93;;
6757;SDS011;3416;53.074;8.822;2023-05-08T12:21:35;9.67;;;8.23;;
6757;SDS011;3416;53.074;8.822;2023-05-08T12:24:04;9.30;;;8.40;;
6757;SDS011;3416;53.074;8.822;2023-05-08T12:26:33;10.07;;;9.17;;
6757;SDS011;3416;53.074;8.822;2023-05-08T12:29:03;9.63;;;8.73;;
6757;SDS011;3416;53.074;8.822;2023-05-08T12:31:31;9.10;;;7.80;;
6757;SDS011;3416;53.074;8.822;2023-05-08T12:33:58;8.60;;;7.90;;
6757;SDS011;3416;53.074;8.822;2023-05-08T12:36:27;8.63;;;7.80;;
6757;SDS011;3416;53.074;8.822;2023-05-08T12:39:07;12.83;;;8.33;;
6757;SDS011;3416;53.074;8.822;2023-05-08T12:41:40;8.20;;;7.47;;
6757;SDS011;3416;53.074;8.822;2023-05-08T12:44:16;8.17;;;7.47;;
6757;SDS011;3416;53.074;8.822;2023-05-08T12:46:48;9.50;;;8.50;;
6757;SDS011;3416;53.074;8.822;2023-05-08T12:49:21;9.13;;;8.33;;
6757;SDS011;3416;53.074;8.822;2023-05-08T12:51:50;9.53;;;8.63;;
6757;SDS011;3416;53.074;8.822;2023-05-08T12:54:17;12.03;;;9.10;;
6757;SDS011;3416;53.074;8.822;2023-05-08T12:56:44;9.93;;;9.03;;
6757;SDS011;3416;53.074;8.822;2023-05-08T12:59:11;8.87;;;7.97;;
6757;SDS011;3416;53.074;8.822;2023-05-08T13:01:39;8.63;;;7.83;;
6757;SDS011;3416;53.074;8.822;2023-05-08T13:04:06;9.43;;;7.17;;
6757;SDS011;3416;53.074;8.822;2023-05-08T13:06:33;7.27;;;6.57;;
6757;SDS011;3416;53.074;8.822;2023-05-08T13:09:00;9.30;;;8.10;;
6757;SDS011;3416;53.074;8.822;2023-05-08T13:11:27;7.60;;;6.80;;
6757;SDS011;3416;53.074;8.822;2023-05-08T13:13:55;8.30;;;6.63;;
6757;SDS011;3416;53.074;8.822;2023-05-08T13:16:22;10.40;;;7.50;;
6757;SDS011;3416;53.074;8.822;2023-05-08T13:18:51;7.43;;;6.73;;
6757;SDS011;3416;53.074;8.822;2023-05-08T13:21:18;8.40;;;7.70;;
6757;SDS011;3416;53.074;8.822;2023-05-08T13:23:45;7.70;;;7.00;;
6757;SDS011;3416;53.074;8.822;2023-05-08T13:26:12;7.90;;;7.20;;
6757;SDS011;3416;53.074;8.822;2023-05-08T13:28:38;8.23;;;7.57;;
6757;SDS011;3416;53.074;8.822;2023-05-08T13:31:05;8.57;;;7.07;;
6757;SDS011;3416;53.074;8.822;2023-05-08T13:33:33;7.30;;;6.60;;
6757;SDS011;3416;53.074;8.822;2023-05-08T13:36:03;7.47;;;6.70;;
6757;SDS011;3416;53.074;8.822;2023-05-08T13:38:30;7.33;;;6.53;;
6757;SDS011;3416;53.074;8.822;2023-05-08T13:40:58;7.47;;;6.87;;
6757;SDS011;3416;53.074;8.822;2023-05-08T13:43:25;6.90;;;6.30;;
6757;SDS011;3416;53.074;8.822;2023-05-08T13:45:52;5.83;;;5.30;;
6757;SDS011;3416;53.074;8.822;2023-05-08T13:48:19;9.00;;;6.50;;
6757;SDS011;3416;53.074;8.822;2023-05-08T13:50:46;6.80;;;4.80;;
6757;SDS011;3416;53.074;8.822;2023-05-08T13:55:47;8.53;;;6.40;;
6757;SDS011;3416;53.074;8.822;2023-05-08T13:58:14;8.70;;;6.33;;
6757;SDS011;3416;53.074;8.822;2023-05-08T14:00:41;7.10;;;5.23;;
6757;SDS011;3416;53.074;8.822;2023-05-08T14:03:08;5.77;;;5.17;;
6757;SDS011;3416;53.074;8.822;2023-05-08T14:05:35;5.90;;;5.40;;
6757;SDS011;3416;53.074;8.822;2023-05-08T14:08:02;5.70;;;5.07;;
6757;SDS011;3416;53.074;8.822;2023-05-08T14:10:30;6.70;;;5.53;;
6757;SDS011;3416;53.074;8.822;2023-05-08T14:12:57;4.63;;;4.23;;
6757;SDS011;3416;53.074;8.822;2023-05-08T14:15:24;5.20;;;4.70;;
6757;SDS011;3416;53.074;8.822;2023-05-08T14:17:51;4.83;;;4.33;;
6757;SDS011;3416;53.074;8.822;2023-05-08T14:20:18;8.77;;;5.10;;
6757;SDS011;3416;53.074;8.822;2023-05-08T14:22:45;4.87;;;4.47;;
6757;SDS011;3416;53.074;8.822;2023-05-08T14:25:12;5.40;;;4.30;;
6757;SDS011;3416;53.074;8.822;2023-05-08T14:27:40;5.90;;;4.47;;
6757;SDS011;3416;53.074;8.822;2023-05-08T14:30:07;5.70;;;3.87;;
6757;SDS011;3416;53.074;8.822;2023-05-08T14:32:34;5.50;;;4.50;;
6757;SDS011;3416;53.074;8.822;2023-05-08T14:35:02;5.70;;;4.50;;
6757;SDS011;3416;53.074;8.822;2023-05-08T14:37:29;5.87;;;4.40;;
6757;SDS011;3416;53.074;8.822;2023-05-08T14:39:57;5.97;;;5.00;;
6757;SDS011;3416;53.074;8.822;2023-05-08T14:42:23;5.93;;;4.40;;
6757;SDS011;3416;53.074;8.822;2023-05-08T14:44:52;6.17;;;4.57;;
6757;SDS011;3416;53.074;8.822;2023-05-08T14:47:19;5.20;;;4.70;;
6757;SDS011;3416;53.074;8.822;2023-05-08T14:49:47;4.70;;;4.30;;
6757;SDS011;3416;53.074;8.822;2023-05-08T14:52:14;4.47;;;4.07;;
6757;SDS011;3416;53.074;8.822;2023-05-08T14:54:41;8.10;;;4.30;;
6757;SDS011;3416;53.074;8.822;2023-05-08T14:57:08;9.10;;;4.60;;
6757;SDS011;3416;53.074;8.822;2023-05-08T14:59:35;4.80;;;4.40;;
6757;SDS011;3416;53.074;8.822;2023-05-08T15:02:03;5.80;;;4.60;;
6757;SDS011;3416;53.074;8.822;2023-05-08T15:04:30;5.23;;;4.73;;
6757;SDS011;3416;53.074;8.822;2023-05-08T15:06:57;5.20;;;4.33;;
6757;SDS011;3416;53.074;8.822;2023-05-08T15:09:24;5.27;;;4.73;;
6757;SDS011;3416;53.074;8.822;2023-05-08T15:11:51;4.60;;;4.20;;
6757;SDS011;3416;53.074;8.822;2023-05-08T15:14:18;6.70;;;4.93;;
6757;SDS011;3416;53.074;8.822;2023-05-08T15:16:45;3.77;;;3.40;;
6757;SDS011;3416;53.074;8.822;2023-05-08T15:19:14;4.57;;;3.70;;
6757;SDS011;3416;53.074;8.822;2023-05-08T15:21:41;4.93;;;3.70;;
6757;SDS011;3416;53.074;8.822;2023-05-08T15:24:08;4.93;;;3.50;;
6757;SDS011;3416;53.074;8.822;2023-05-08T15:26:38;6.43;;;4.20;;
6757;SDS011;3416;53.074;8.822;2023-05-08T15:29:06;4.30;;;3.90;;
6757;SDS011;3416;53.074;8.822;2023-05-08T15:31:34;4.67;;;4.33;;
6757;SDS011;3416;53.074;8.822;2023-05-08T15:34:04;3.97;;;3.60;;
6757;SDS011;3416;53.074;8.822;2023-05-08T15:39:01;6.10;;;4.67;;